Time;durP1;ratioP1;P1;durP2;ratioP2;P2;SDS_P1;SDS_P2;PMS_P1;PMS_P2;Temp;Humidity;BMP_temperature;BMP_pressure;BME280_temperature;BME280_humidity;BME280_pressure;Samples;Min_cycle;Max_cycle;Signal;HPM_P1;HPM_P2
2022/05/02 00:00:20;;;;;;;14.63;7.50;;;5.50;99.90;;;;;;5076953;28;20059;-88
2022/05/02 00:02:46;;;;;;;15.00;7.77;;;5.50;99.90;;;;;;5075807;28;20130;-88
2022/05/02 00:05:12;;;;;;;16.63;8.43;;;5.40;99.90;;;;;;5094396;28;20052;-88
2022/05/02 00:07:38;;;;;;;16.07;8.47;;;5.40;99.90;;;;;;5094788;28;20097;-88
2022/05/02 00:10:06;;;;;;;16.10;7.73;;;5.40;99.90;;;;;;5075361;28;20044;-88
2022/05/02 00:12:32;;;;;;;15.43;7.97;;;5.30;99.90;;;;;;5094229;28;20506;-89
2022/05/02 00:14:57;;;;;;;15.00;8.33;;;5.30;99.90;;;;;;5075621;28;20040;-88
2022/05/02 00:17:56;;;;;;;15.20;8.23;;;5.20;99.90;;;;;;5078937;28;20047;-87
2022/05/02 00:20:09;;;;;;;17.53;8.43;;;5.20;99.90;;;;;;5076470;28;20052;-88
2022/05/02 00:22:35;;;;;;;18.33;8.77;;;5.10;99.90;;;;;;5076406;28;20048;-88
2022/05/02 00:25:00;;;;;;;16.93;8.57;;;5.10;99.90;;;;;;5078444;28;20046;-90
2022/05/02 00:27:26;;;;;;;15.80;8.40;;;5.10;99.90;;;;;;5099301;28;20463;-89
2022/05/02 00:29:52;;;;;;;15.80;8.37;;;5.10;99.90;;;;;;5076087;28;20044;-89
2022/05/02 00:32:17;;;;;;;14.83;8.13;;;5.00;99.90;;;;;;5094084;28;20047;-89
2022/05/02 00:34:43;;;;;;;16.67;8.97;;;5.00;99.90;;;;;;5093882;28;20040;-89
2022/05/02 00:37:08;;;;;;;16.97;8.37;;;5.00;99.90;;;;;;5093320;28;20531;-89
2022/05/02 00:39:34;;;;;;;15.10;8.93;;;4.90;99.90;;;;;;5075536;28;20498;-89
2022/05/02 00:41:59;;;;;;;14.50;8.20;;;4.90;99.90;;;;;;5093778;28;20388;-90
2022/05/02 00:44:25;;;;;;;15.17;8.60;;;4.90;99.90;;;;;;5075374;28;20434;-90
2022/05/02 00:46:51;;;;;;;15.07;8.73;;;4.80;99.90;;;;;;5079043;28;20048;-89
2022/05/02 00:49:17;;;;;;;19.57;9.93;;;4.80;99.90;;;;;;5076451;28;20051;-89
2022/05/02 00:51:42;;;;;;;16.73;8.70;;;4.70;99.90;;;;;;5092993;28;20391;-89
2022/05/02 00:54:08;;;;;;;18.83;9.47;;;4.70;99.90;;;;;;5073932;28;20059;-90
2022/05/02 00:56:34;;;;;;;17.03;9.43;;;4.70;99.90;;;;;;5072414;28;20407;-89
2022/05/02 00:59:00;;;;;;;19.07;10.43;;;4.70;99.90;;;;;;5054112;28;20044;-89
2022/05/02 01:01:25;;;;;;;16.43;9.93;;;4.70;99.90;;;;;;5054978;28;20053;-90
2022/05/02 01:03:51;;;;;;;17.63;9.03;;;4.60;99.90;;;;;;5054832;28;20047;-90
2022/05/02 01:09:02;;;;;;;16.10;9.30;;;4.50;99.90;;;;;;5072912;28;20044;-89
2022/05/02 01:11:29;;;;;;;16.60;9.37;;;4.50;99.90;;;;;;5073624;28;20050;-89
2022/05/02 01:13:54;;;;;;;16.97;9.33;;;4.40;99.90;;;;;;5071926;28;20098;-89
2022/05/02 01:16:26;;;;;;;16.70;9.73;;;4.40;99.90;;;;;;5055037;28;20052;-90
2022/05/02 01:18:55;;;;;;;18.40;9.93;;;4.40;99.90;;;;;;5054959;28;20052;-89
2022/05/02 01:21:26;;;;;;;19.07;11.40;;;4.40;99.90;;;;;;5054476;28;20043;-89
2022/05/02 01:23:54;;;;;;;20.97;11.23;;;4.40;99.90;;;;;;5054911;28;20051;-90
2022/05/02 01:26:20;;;;;;;19.53;10.40;;;4.30;99.90;;;;;;5072381;28;20079;-89
2022/05/02 01:28:51;;;;;;;19.33;10.37;;;4.30;99.90;;;;;;5054461;28;20484;-90
2022/05/02 01:31:18;;;;;;;18.53;10.00;;;4.30;99.90;;;;;;5073003;28;20046;-89
2022/05/02 01:33:44;;;;;;;18.17;10.67;;;4.30;99.90;;;;;;5072271;28;20040;-89
2022/05/02 01:36:10;;;;;;;17.13;9.73;;;4.20;99.90;;;;;;5055202;28;20098;-90
2022/05/02 01:38:36;;;;;;;18.93;10.23;;;4.20;99.90;;;;;;5054868;28;20135;-90
2022/05/02 01:41:03;;;;;;;18.73;10.67;;;4.10;99.90;;;;;;5072624;28;20045;-89
2022/05/02 01:43:29;;;;;;;16.60;9.80;;;4.00;99.90;;;;;;5073604;28;20044;-90
2022/05/02 01:45:55;;;;;;;17.57;9.63;;;4.00;99.90;;;;;;5055450;28;20055;-90
2022/05/02 01:48:20;;;;;;;17.03;9.90;;;3.90;99.90;;;;;;5058836;28;20052;-89
2022/05/02 01:50:46;;;;;;;16.43;9.10;;;3.90;99.90;;;;;;5078186;28;20036;-90
2022/05/02 01:53:11;;;;;;;18.50;10.40;;;3.80;99.90;;;;;;5074447;28;20056;-90
2022/05/02 01:55:37;;;;;;;20.80;10.13;;;3.80;99.90;;;;;;5100419;28;20051;-90
2022/05/02 01:58:02;;;;;;;19.23;10.80;;;3.70;99.90;;;;;;5096046;28;20052;-90
2022/05/02 02:00:28;;;;;;;18.17;10.20;;;3.70;99.90;;;;;;5093002;28;20464;-89
2022/05/02 02:02:53;;;;;;;19.30;10.47;;;3.60;99.90;;;;;;5074216;28;20048;-90
2022/05/02 02:08:03;;;;;;;19.48;10.13;;;3.60;99.90;;;;;;5096577;28;20080;-90
2022/05/02 02:10:29;;;;;;;17.80;10.00;;;3.50;99.90;;;;;;5096308;28;20079;-90
2022/05/02 02:12:55;;;;;;;18.77;10.30;;;3.50;99.90;;;;;;5078816;28;20466;-90
2022/05/02 02:15:20;;;;;;;20.13;10.77;;;3.40;99.90;;;;;;5096243;28;20519;-89
2022/05/02 02:17:46;;;;;;;19.10;10.70;;;3.40;99.90;;;;;;5078249;28;20044;-90
2022/05/02 02:20:13;;;;;;;19.90;11.10;;;3.40;99.90;;;;;;5097278;28;20059;-90
2022/05/02 02:22:39;;;;;;;20.57;10.73;;;3.30;99.90;;;;;;5096085;28;20044;-90
2022/05/02 02:25:06;;;;;;;20.37;10.57;;;3.30;99.90;;;;;;5078738;28;20044;-90
2022/05/02 02:27:32;;;;;;;19.47;11.07;;;3.30;99.90;;;;;;5096753;28;20480;-90
2022/05/02 02:29:59;;;;;;;20.53;11.43;;;3.30;99.90;;;;;;5077696;28;20570;-90
2022/05/02 02:32:26;;;;;;;19.60;11.47;;;3.30;99.90;;;;;;5078375;28;20055;-90
2022/05/02 02:34:51;;;;;;;19.53;10.97;;;3.20;99.90;;;;;;5096751;28;20047;-90
2022/05/02 02:37:17;;;;;;;19.50;11.00;;;3.20;99.90;;;;;;5077440;28;20044;-90
2022/05/02 02:39:43;;;;;;;22.27;11.67;;;3.20;99.90;;;;;;5077915;28;20036;-89
2022/05/02 02:42:10;;;;;;;21.17;11.23;;;3.20;99.90;;;;;;5096425;28;20080;-90
2022/05/02 02:44:35;;;;;;;20.30;11.00;;;3.20;99.90;;;;;;5077746;28;20078;-89
2022/05/02 02:47:02;;;;;;;20.57;11.63;;;3.10;99.90;;;;;;5078297;28;20460;-90
2022/05/02 02:49:27;;;;;;;22.83;11.50;;;3.10;99.90;;;;;;5096082;28;20040;-90
2022/05/02 02:51:53;;;;;;;20.10;11.10;;;3.10;99.90;;;;;;5095498;28;20131;-89
2022/05/02 02:54:18;;;;;;;21.90;11.80;;;3.10;99.90;;;;;;5084021;28;20176;-90
2022/05/02 02:56:44;;;;;;;22.17;12.07;;;3.00;99.90;;;;;;5077553;28;20048;-90
2022/05/02 02:59:10;;;;;;;23.07;11.80;;;3.00;99.90;;;;;;5095069;28;20050;-90
2022/05/02 03:01:36;;;;;;;22.33;12.10;;;2.90;99.90;;;;;;5095718;28;20496;-90
2022/05/02 03:06:01;;;;;;;21.80;12.33;;;2.90;99.90;;;;;;5095490;28;20053;-90
2022/05/02 03:06:48;;;;;;;21.43;11.90;;;3.00;99.90;;;;;;5094578;28;20052;-90
2022/05/02 03:09:13;;;;;;;22.90;12.37;;;2.90;99.90;;;;;;5080218;28;20120;-90
2022/05/02 03:11:39;;;;;;;24.30;12.93;;;2.90;99.90;;;;;;5115360;28;20036;-90
2022/05/02 03:14:04;;;;;;;21.93;12.37;;;2.90;99.90;;;;;;5115827;28;20044;-90
2022/05/02 03:16:30;;;;;;;19.53;11.40;;;2.90;99.90;;;;;;5116466;28;20498;-90
2022/05/02 03:18:55;;;;;;;23.03;13.10;;;2.80;99.90;;;;;;5095719;28;20759;-90
2022/05/02 03:21:21;;;;;;;23.03;12.90;;;2.90;99.90;;;;;;5098187;28;20071;-90
2022/05/02 03:23:46;;;;;;;21.37;11.90;;;2.80;99.90;;;;;;5115984;28;20070;-90
2022/05/02 03:26:12;;;;;;;24.07;13.13;;;2.80;99.90;;;;;;5097464;28;20052;-90
2022/05/02 03:28:37;;;;;;;22.57;12.67;;;2.80;99.90;;;;;;5097414;28;20063;-90
2022/05/02 03:31:03;;;;;;;23.97;13.03;;;2.70;99.90;;;;;;5097874;28;20050;-90
2022/05/02 03:33:29;;;;;;;23.23;12.07;;;2.70;99.90;;;;;;5115864;28;20039;-90
2022/05/02 03:35:55;;;;;;;23.10;12.87;;;2.70;99.90;;;;;;5097525;28;20138;-90
2022/05/02 03:38:21;;;;;;;24.80;13.40;;;2.70;99.90;;;;;;5115993;28;20039;-90
2022/05/02 03:40:46;;;;;;;23.60;13.13;;;2.70;99.90;;;;;;5096739;28;20039;-90
2022/05/02 03:43:12;;;;;;;23.43;13.17;;;2.60;99.90;;;;;;5096864;28;20052;-90
2022/05/02 03:45:38;;;;;;;22.50;13.17;;;2.60;99.90;;;;;;5097402;28;20039;-89
2022/05/02 03:48:04;;;;;;;26.17;14.33;;;2.60;99.90;;;;;;5096809;28;20044;-90
2022/05/02 03:50:29;;;;;;;24.87;13.30;;;2.50;99.90;;;;;;5097165;28;20047;-90
2022/05/02 03:52:55;;;;;;;23.30;12.93;;;2.50;99.90;;;;;;5114818;28;20058;-90
2022/05/02 03:55:21;;;;;;;24.50;12.80;;;2.50;99.90;;;;;;5116162;28;20395;-90
2022/05/02 03:57:46;;;;;;;24.97;13.33;;;2.50;99.90;;;;;;5103168;28;20051;-90
2022/05/02 04:00:13;;;;;;;22.13;12.27;;;2.50;99.90;;;;;;5115345;28;20394;-90
2022/05/02 04:02:39;;;;;;;24.67;13.30;;;2.50;99.90;;;;;;5114650;28;20044;-90
2022/05/02 04:05:05;;;;;;;26.57;14.33;;;2.50;99.90;;;;;;5115006;28;20090;-90
2022/05/02 04:07:31;;;;;;;23.67;13.17;;;2.50;99.90;;;;;;5115090;28;20040;-90
2022/05/02 04:09:56;;;;;;;26.33;14.80;;;2.50;99.90;;;;;;5114425;28;20046;-90
2022/05/02 04:12:22;;;;;;;24.00;13.70;;;2.50;99.90;;;;;;5096908;28;20487;-90
2022/05/02 04:14:47;;;;;;;24.90;14.20;;;2.50;99.90;;;;;;5096622;28;20457;-90
2022/05/02 04:17:13;;;;;;;26.00;14.03;;;2.50;99.90;;;;;;5096627;28;20556;-90
2022/05/02 04:19:38;;;;;;;23.87;13.70;;;2.60;99.90;;;;;;5114966;28;20122;-90
2022/05/02 04:22:04;;;;;;;26.67;13.80;;;2.60;99.90;;;;;;5096217;28;20048;-90
2022/05/02 04:24:30;;;;;;;25.03;14.27;;;2.60;99.90;;;;;;5096513;28;20043;-90
2022/05/02 04:26:57;;;;;;;25.57;13.93;;;2.60;99.90;;;;;;5114298;28;20122;-90
2022/05/02 04:29:24;;;;;;;28.80;14.73;;;2.60;99.90;;;;;;5113400;28;20039;-90
2022/05/02 04:31:49;;;;;;;23.27;13.70;;;2.60;99.90;;;;;;5096080;28;20043;-90
2022/05/02 04:34:16;;;;;;;26.83;14.67;;;2.70;99.90;;;;;;5114869;28;20676;-90
2022/05/02 04:36:41;;;;;;;24.33;14.27;;;2.80;99.90;;;;;;5095420;28;20502;-90
2022/05/02 04:39:07;;;;;;;25.83;14.67;;;2.80;99.90;;;;;;5115112;28;20050;-90
2022/05/02 04:41:33;;;;;;;25.30;14.60;;;3.10;99.90;;;;;;5096492;28;20445;-90
2022/05/02 04:43:58;;;;;;;24.27;13.40;;;2.80;99.90;;;;;;5114539;28;20051;-90
2022/05/02 04:46:26;;;;;;;26.93;13.67;;;2.90;99.90;;;;;;5115839;28;20045;-90
2022/05/02 04:48:52;;;;;;;26.07;14.37;;;2.90;99.90;;;;;;5097708;28;20515;-90
2022/05/02 04:51:17;;;;;;;25.70;13.63;;;2.90;99.90;;;;;;5120521;28;20043;-90
2022/05/02 04:53:43;;;;;;;27.77;14.40;;;3.00;99.90;;;;;;5099327;28;20051;-90
2022/05/02 04:56:09;;;;;;;27.53;14.77;;;3.10;99.90;;;;;;5114269;28;20039;-90
2022/05/02 04:58:34;;;;;;;27.40;15.43;;;3.20;99.90;;;;;;5113739;28;20065;-91
2022/05/02 05:01:00;;;;;;;28.67;15.73;;;3.20;99.90;;;;;;5120790;28;20107;-90
2022/05/02 05:03:25;;;;;;;27.27;15.73;;;3.30;99.90;;;;;;5095661;28;20487;-89
2022/05/02 05:05:54;;;;;;;27.83;15.87;;;3.40;99.90;;;;;;5113342;28;20075;-89
2022/05/02 05:08:19;;;;;;;30.73;16.30;;;3.50;99.90;;;;;;5095657;28;20479;-88
2022/05/02 05:10:59;;;;;;;29.10;16.63;;;3.60;99.90;;;;;;5113718;28;20047;-89
2022/05/02 05:13:30;;;;;;;30.27;16.70;;;3.70;99.90;;;;;;5094755;28;20044;-89
2022/05/02 05:16:25;;;;;;;27.93;15.63;;;3.80;99.90;;;;;;5095465;28;20047;-89
2022/05/02 05:19:02;;;;;;;27.63;15.23;;;3.90;99.90;;;;;;5094676;28;20071;-89
2022/05/02 05:21:28;;;;;;;26.27;15.83;;;4.10;99.90;;;;;;5095166;28;20048;-90
2022/05/02 05:24:21;;;;;;;27.57;15.73;;;4.20;99.90;;;;;;5095146;28;20101;-89
2022/05/02 05:27:08;;;;;;;25.33;14.93;;;4.40;99.90;;;;;;5112456;28;20035;-89
2022/05/02 05:30:05;;;;;;;25.00;14.50;;;4.60;99.90;;;;;;5095298;28;20077;-89
2022/05/02 05:33:02;;;;;;;27.30;15.77;;;4.70;99.90;;;;;;5112556;28;20032;-89
2022/05/02 05:35:44;;;;;;;24.90;14.23;;;4.90;99.90;;;;;;5095074;28;20047;-89
2022/05/02 05:38:15;;;;;;;26.27;14.50;;;5.00;99.90;;;;;;5095349;28;20071;-89
2022/05/02 05:40:44;;;;;;;26.30;14.33;;;5.10;99.90;;;;;;5093657;28;20044;-89
2022/05/02 05:43:46;;;;;;;24.43;14.00;;;5.20;99.90;;;;;;5113072;28;20039;-89
2022/05/02 05:46:46;;;;;;;25.50;13.87;;;5.30;99.90;;;;;;5095085;28;20046;-88
2022/05/02 05:49:27;;;;;;;25.57;14.13;;;5.40;99.90;;;;;;5113445;28;20051;-89
2022/05/02 05:52:00;;;;;;;23.73;13.40;;;5.50;99.90;;;;;;5112972;28;20043;-89
2022/05/02 05:54:48;;;;;;;23.63;13.00;;;5.60;99.90;;;;;;5094206;28;20087;-88
2022/05/02 05:57:41;;;;;;;22.97;13.40;;;5.60;99.90;;;;;;5094940;28;20043;-88
2022/05/02 06:00:12;;;;;;;25.77;13.67;;;5.80;99.90;;;;;;5113281;28;20044;-89
2022/05/02 06:03:12;;;;;;;21.07;12.83;;;5.90;99.90;;;;;;5100343;28;20043;-95
2022/05/02 06:05:40;;;;;;;22.90;12.77;;;6.00;99.90;;;;;;5095410;28;20119;-92
2022/05/02 06:08:13;;;;;;;23.90;12.90;;;6.10;99.90;;;;;;5112974;28;20118;-89
2022/05/02 06:10:40;;;;;;;23.97;13.10;;;6.20;99.90;;;;;;5094498;28;20483;-91
2022/05/02 06:13:07;;;;;;;23.10;13.60;;;6.20;99.90;;;;;;5113786;28;20764;-91
2022/05/02 06:18:29;;;;;;;23.57;13.43;;;6.40;99.90;;;;;;5113936;28;20055;-95
2022/05/02 06:20:58;;;;;;;20.42;12.65;;;6.50;99.90;;;;;;5115705;28;20040;-93
2022/05/02 06:23:27;;;;;;;21.20;12.37;;;6.60;99.90;;;;;;5114940;28;20050;-96
2022/05/02 06:25:55;;;;;;;20.47;12.20;;;6.60;99.90;;;;;;5115211;28;20043;-92
2022/05/02 06:28:26;;;;;;;20.23;12.50;;;6.70;99.90;;;;;;5114679;28;20048;-89
2022/05/02 06:30:55;;;;;;;22.25;12.65;;;6.80;99.90;;;;;;5093854;28;20090;-88
2022/05/02 06:33:24;;;;;;;21.33;12.13;;;6.90;99.90;;;;;;5112908;28;20491;-89
2022/05/02 06:35:59;;;;;;;20.50;12.43;;;7.00;99.90;;;;;;5085684;28;20051;-89
2022/05/02 06:38:33;;;;;;;19.77;12.07;;;7.10;99.90;;;;;;5092989;28;20067;-89
2022/05/02 06:41:14;;;;;;;21.45;12.88;;;7.10;99.90;;;;;;5105247;28;20372;-88
2022/05/02 06:43:57;;;;;;;21.50;12.60;;;7.30;99.90;;;;;;5108554;28;20436;-88
2022/05/02 06:46:33;;;;;;;22.75;12.50;;;7.40;99.90;;;;;;5132829;28;20542;-89
2022/05/02 06:49:10;;;;;;;21.02;12.75;;;7.50;99.90;;;;;;5113773;28;20079;-89
2022/05/02 06:51:38;;;;;;;22.67;12.02;;;7.70;99.90;;;;;;5132583;28;20047;-90
2022/05/02 06:54:24;;;;;;;19.50;12.07;;;7.80;99.90;;;;;;5135117;27;20047;-86
2022/05/02 06:57:24;;;;;;;23.98;13.25;;;8.00;99.90;;;;;;5136117;27;20118;-89
2022/05/02 07:00:07;;;;;;;22.08;12.77;;;8.20;99.90;;;;;;5122534;27;20504;-90
2022/05/02 07:02:53;;;;;;;20.23;12.13;;;8.40;99.90;;;;;;5118017;27;20065;-88
2022/05/02 07:05:45;;;;;;;20.55;12.07;;;8.60;99.90;;;;;;5117194;27;20046;-89
2022/05/02 07:08:19;;;;;;;19.42;12.30;;;8.80;99.90;;;;;;5141303;27;20052;-89
2022/05/02 07:10:54;;;;;;;19.00;11.38;;;9.00;99.90;;;;;;5117171;27;20386;-89
2022/05/02 07:13:41;;;;;;;18.02;10.75;;;9.10;99.90;;;;;;5136129;27;20547;-89
2022/05/02 07:16:10;;;;;;;18.02;10.85;;;9.30;99.90;;;;;;5116732;27;20096;-90
2022/05/02 07:18:45;;;;;;;18.52;10.63;;;9.50;99.90;;;;;;5117142;27;20576;-89
2022/05/02 07:21:30;;;;;;;19.10;11.13;;;9.70;99.90;;;;;;5118053;27;20557;-88
2022/05/02 07:24:14;;;;;;;;;;;10.00;99.90;;;;;;5136469;27;20061;-89
2022/05/02 07:26:44;;;;;;;15.77;9.80;;;10.10;99.90;;;;;;5115741;27;19919;-89
2022/05/02 07:29:12;;;;;;;16.17;10.30;;;10.30;99.90;;;;;;5135536;27;20565;-89
2022/05/02 07:31:39;;;;;;;17.98;9.75;;;10.50;99.90;;;;;;5136215;27;20039;-89
2022/05/02 07:34:06;;;;;;;16.50;9.85;;;10.70;99.90;;;;;;5135027;27;20104;-90
2022/05/02 07:36:35;;;;;;;15.10;9.43;;;10.80;99.90;;;;;;5136229;27;20042;-89
2022/05/02 07:39:06;;;;;;;16.08;10.25;;;11.00;99.90;;;;;;5115779;27;20065;-90
2022/05/02 07:41:33;;;;;;;18.40;10.55;;;11.20;99.90;;;;;;5116644;27;20079;-89
2022/05/02 07:44:00;;;;;;;17.45;9.57;;;11.30;99.90;;;;;;5135706;27;20448;-89
2022/05/02 07:46:28;;;;;;;15.27;9.63;;;12.10;99.90;;;;;;5105568;28;20044;-90
2022/05/02 07:48:56;;;;;;;16.17;9.48;;;11.60;99.90;;;;;;5095295;28;20062;-89
2022/05/02 07:51:24;;;;;;;13.98;8.25;;;11.70;99.90;;;;;;5095518;28;20115;-88
2022/05/02 07:53:51;;;;;;;17.05;8.10;;;11.90;99.90;;;;;;5093904;28;20048;-88
2022/05/02 07:56:22;;;;;;;12.88;8.07;;;12.00;99.90;;;;;;5093878;28;20632;-87
2022/05/02 07:58:50;;;;;;;13.55;7.75;;;12.20;99.90;;;;;;5094453;28;20510;-88
2022/05/02 08:01:19;;;;;;;15.68;8.00;;;12.40;99.90;;;;;;5094031;28;20043;-88
2022/05/02 08:03:45;;;;;;;14.70;7.85;;;12.50;99.90;;;;;;5094536;28;20079;-88
2022/05/02 08:06:22;;;;;;;12.88;7.93;;;12.60;99.90;;;;;;5094591;28;20463;-88
2022/05/02 08:08:56;;;;;;;15.77;7.65;;;12.70;99.90;;;;;;5075345;28;20055;-88
2022/05/02 08:11:53;;;;;;;14.55;7.72;;;12.80;99.90;;;;;;5078153;28;20048;-87
2022/05/02 08:14:33;;;;;;;14.95;7.57;;;12.90;99.90;;;;;;5075005;28;20117;-88
2022/05/02 08:17:10;;;;;;;13.57;7.45;;;13.00;99.90;;;;;;5075609;28;20448;-87
2022/05/02 08:19:56;;;;;;;14.05;7.63;;;13.20;99.90;;;;;;5094666;28;20044;-88
2022/05/02 08:28:52;;;;;;;15.43;7.57;;;13.40;99.90;;;;;;5094002;28;20407;-88
2022/05/02 08:31:37;;;;;;;14.43;7.47;;;13.60;99.90;;;;;;5075797;28;20483;-86
2022/05/02 08:34:30;;;;;;;12.80;7.18;;;13.70;99.90;;;;;;5075380;28;20047;-88
2022/05/02 08:37:27;;;;;;;11.38;7.03;;;13.80;99.90;;;;;;5092752;28;20487;-91
2022/05/02 08:40:04;;;;;;;14.13;7.72;;;14.00;99.90;;;;;;5093732;28;20043;-90
2022/05/02 08:43:01;;;;;;;13.48;8.05;;;13.90;99.90;;;;;;5093576;28;20378;-90
2022/05/02 08:45:45;;;;;;;12.05;7.15;;;14.00;99.90;;;;;;5076157;28;20048;-90
2022/05/02 08:48:22;;;;;;;;;;;14.10;99.90;;;;;;5076298;28;20110;-90
2022/05/02 08:51:12;;;;;;;12.10;7.40;;;14.10;99.90;;;;;;5077018;28;20010;-90
2022/05/02 08:54:14;;;;;;;14.52;8.25;;;14.40;99.90;;;;;;5096200;28;20058;-90
2022/05/02 08:57:13;;;;;;;12.88;7.53;;;14.50;99.90;;;;;;5112512;28;20047;-90
2022/05/02 08:59:53;;;;;;;14.18;7.43;;;14.40;99.90;;;;;;5081748;28;20047;-90
2022/05/02 09:02:33;;;;;;;13.63;7.15;;;14.60;99.90;;;;;;5114545;28;20094;-90
2022/05/02 09:05:37;;;;;;;14.40;7.80;;;14.80;99.90;;;;;;5095120;28;20047;-90
2022/05/02 09:08:25;;;;;;;12.00;6.97;;;14.90;99.90;;;;;;5096075;28;20043;-89
2022/05/02 09:11:07;;;;;;;12.30;7.10;;;14.90;99.90;;;;;;5114012;28;20039;-91
2022/05/02 09:13:47;;;;;;;12.27;6.88;;;15.10;99.90;;;;;;5118186;28;20040;-90
2022/05/02 09:16:31;;;;;;;11.45;6.15;;;15.20;99.90;;;;;;5114927;28;20057;-90
2022/05/02 09:19:20;;;;;;;13.00;7.13;;;15.30;99.90;;;;;;5112807;28;20043;-90
2022/05/02 09:22:08;;;;;;;14.18;6.65;;;15.40;99.90;;;;;;5095793;28;20196;-91
2022/05/02 09:25:07;;;;;;;11.20;6.60;;;15.60;99.90;;;;;;5113690;28;20530;-92
2022/05/02 09:28:04;;;;;;;14.60;7.22;;;15.80;99.90;;;;;;5113665;28;20051;-91
2022/05/02 09:30:58;;;;;;;11.73;6.65;;;15.90;99.90;;;;;;5113580;28;20497;-92
2022/05/02 09:33:43;;;;;;;11.48;6.90;;;15.90;99.90;;;;;;5112250;28;20118;-91
2022/05/02 09:36:35;;;;;;;14.18;7.13;;;16.10;99.90;;;;;;5096146;28;20047;-92
2022/05/02 09:39:11;;;;;;;12.73;7.45;;;16.30;99.90;;;;;;5095194;28;20047;-91
2022/05/02 09:41:40;;;;;;;12.80;7.20;;;16.30;99.90;;;;;;5096234;28;20043;-92
2022/05/02 09:50:40;;;;;;;14.23;7.60;;;16.50;99.90;;;;;;5114016;28;20054;-93
2022/05/02 09:53:36;;;;;;;12.27;7.25;;;16.70;99.90;;;;;;5098395;28;20064;-89
2022/05/02 09:56:56;;;;;;;12.77;7.70;;;16.80;99.10;;;;;;5095133;28;20044;-90
2022/05/02 09:59:17;;;;;;;12.23;7.13;;;16.90;98.60;;;;;;5086729;28;20051;-93
2022/05/02 10:02:12;;;;;;;14.68;7.32;;;17.10;99.50;;;;;;5094334;28;20039;-91
2022/05/02 10:05:05;;;;;;;12.00;7.65;;;17.20;99.90;;;;;;5099593;28;20051;-92
2022/05/02 10:07:50;;;;;;;13.50;7.75;;;17.80;97.40;;;;;;5112787;28;20194;-91
2022/05/02 10:10:42;;;;;;;13.43;8.00;;;17.30;98.60;;;;;;5095276;28;20166;-90
2022/05/02 10:13:26;;;;;;;12.77;7.68;;;17.30;96.30;;;;;;5094967;28;20078;-90
2022/05/02 10:16:07;;;;;;;;;;;17.20;97.20;;;;;;5112851;28;20054;-90
2022/05/02 10:18:56;;;;;;;12.07;7.68;;;17.50;96.40;;;;;;5100628;28;19920;-88
2022/05/02 10:21:40;;;;;;;13.15;7.72;;;17.70;95.80;;;;;;5094534;28;20047;-90
2022/05/02 10:24:42;;;;;;;14.00;8.45;;;17.80;96.50;;;;;;5094929;28;20048;-89
2022/05/02 10:27:25;;;;;;;22.02;9.63;;;17.80;94.70;;;;;;5107772;28;20495;-90
2022/05/02 10:30:20;;;;;;;12.40;7.60;;;17.90;95.60;;;;;;5116043;28;20048;-90
2022/05/02 10:32:56;;;;;;;13.80;8.30;;;17.80;93.30;;;;;;5077464;28;20417;-90
2022/05/02 10:35:24;;;;;;;13.05;7.82;;;17.90;94.60;;;;;;5116546;28;20138;-90
2022/05/02 10:38:01;;;;;;;13.23;8.20;;;18.20;95.70;;;;;;5098472;28;20047;-89
2022/05/02 10:40:42;;;;;;;12.63;8.15;;;18.40;95.10;;;;;;5099327;28;20048;-89
2022/05/02 10:43:09;;;;;;;15.13;8.40;;;18.50;93.90;;;;;;5099211;28;20045;-88
2022/05/02 10:45:37;;;;;;;11.77;7.75;;;18.70;94.40;;;;;;5116621;28;20051;-86
2022/05/02 10:48:19;;;;;;;11.77;7.85;;;18.50;93.90;;;;;;5098590;28;20086;-90
2022/05/02 10:51:14;;;;;;;13.27;8.63;;;18.60;93.80;;;;;;5115829;28;20047;-86
2022/05/02 10:53:58;;;;;;;13.05;8.25;;;18.50;90.60;;;;;;5116353;28;20063;-85
2022/05/02 10:56:41;;;;;;;15.77;8.60;;;18.40;91.80;;;;;;5097531;28;20054;-87
2022/05/02 10:59:10;;;;;;;15.95;8.75;;;18.00;92.40;;;;;;5116125;28;20049;-87
2022/05/02 11:02:08;;;;;;;13.27;8.05;;;17.70;92.90;;;;;;5097984;28;20040;-87
2022/05/02 11:05:01;;;;;;;12.93;8.02;;;17.90;92.50;;;;;;5115606;28;20490;-86
2022/05/02 11:07:42;;;;;;;13.18;8.00;;;18.20;92.70;;;;;;5116379;28;20067;-86
2022/05/02 11:10:13;;;;;;;14.18;8.48;;;18.60;92.00;;;;;;5097944;28;20134;-84
2022/05/02 11:12:46;;;;;;;15.52;8.50;;;18.50;91.90;;;;;;5097750;28;20482;-86
2022/05/02 11:15:18;;;;;;;15.13;7.70;;;18.70;92.10;;;;;;5097505;28;20050;-83
2022/05/02 11:18:04;;;;;;;13.82;9.00;;;18.90;92.50;;;;;;5096498;28;20096;-83
2022/05/02 11:20:47;;;;;;;14.90;9.05;;;18.80;90.80;;;;;;5116017;28;20047;-83
2022/05/02 11:23:24;;;;;;;;;;;18.90;91.00;;;;;;5116420;28;20079;-84
2022/05/02 11:26:12;;;;;;;14.43;8.57;;;18.80;90.30;;;;;;5096485;28;19969;-83
2022/05/02 11:29:10;;;;;;;14.63;8.95;;;18.90;90.20;;;;;;5115461;28;20429;-84
2022/05/02 11:31:40;;;;;;;12.23;7.93;;;18.90;89.50;;;;;;5115144;28;20101;-83
2022/05/02 11:34:11;;;;;;;12.20;7.70;;;19.00;90.80;;;;;;5097262;28;20577;-83
2022/05/02 11:36:46;;;;;;;11.50;7.85;;;19.00;90.20;;;;;;5115523;28;20483;-83
2022/05/02 11:39:30;;;;;;;13.00;8.80;;;19.20;89.20;;;;;;5113942;28;20048;-83
2022/05/02 11:42:07;;;;;;;14.25;8.80;;;19.20;88.90;;;;;;5096981;28;20042;-83
2022/05/02 11:44:46;;;;;;;14.63;8.52;;;19.20;88.70;;;;;;5115407;28;20110;-82
2022/05/02 11:47:36;;;;;;;14.38;8.63;;;19.30;88.60;;;;;;5114567;28;20043;-83
2022/05/02 11:50:09;;;;;;;13.43;8.50;;;19.30;86.90;;;;;;5097133;28;20494;-83
2022/05/02 11:52:37;;;;;;;13.88;8.93;;;19.50;87.80;;;;;;5096109;28;20407;-82
2022/05/02 11:55:07;;;;;;;13.75;8.70;;;19.50;87.50;;;;;;5115126;28;20137;-82
2022/05/02 11:57:37;;;;;;;13.48;8.20;;;19.60;87.70;;;;;;5097293;28;20051;-82
2022/05/02 12:00:05;;;;;;;13.52;8.75;;;19.80;87.60;;;;;;5114050;28;20061;-82
2022/05/02 12:02:37;;;;;;;13.15;9.32;;;19.90;87.40;;;;;;5115218;28;20048;-83
2022/05/02 12:05:18;;;;;;;14.98;9.13;;;19.90;85.80;;;;;;5096478;28;20043;-82
2022/05/02 12:07:56;;;;;;;13.00;9.05;;;19.80;82.00;;;;;;5095843;28;20044;-82
2022/05/02 12:10:37;;;;;;;11.95;8.57;;;19.80;84.30;;;;;;5114771;28;20044;-82
2022/05/02 12:13:05;;;;;;;14.07;8.95;;;20.10;85.10;;;;;;5114796;28;20044;-82
2022/05/02 12:15:31;;;;;;;13.10;8.07;;;20.40;86.10;;;;;;5095795;28;20078;-82
2022/05/02 12:18:01;;;;;;;12.20;7.95;;;20.70;85.80;;;;;;5096012;28;20071;-83
2022/05/02 12:20:41;;;;;;;12.85;8.98;;;20.90;84.00;;;;;;5095565;28;20122;-83
2022/05/02 12:23:18;;;;;;;13.45;8.45;;;20.60;82.70;;;;;;5096205;28;20050;-82
2022/05/02 12:25:49;;;;;;;12.60;8.32;;;20.70;82.80;;;;;;5096385;28;20446;-83
2022/05/02 12:28:16;;;;;;;14.45;8.50;;;20.60;82.10;;;;;;5095372;28;20048;-83
2022/05/02 12:30:42;;;;;;;15.25;8.30;;;20.70;82.50;;;;;;5114165;28;20082;-82
2022/05/02 12:33:08;;;;;;;11.93;7.97;;;21.00;82.30;;;;;;5114183;28;20491;-83
2022/05/02 12:35:37;;;;;;;11.93;8.00;;;20.90;81.10;;;;;;5113900;28;20047;-82
2022/05/02 12:38:24;;;;;;;13.48;8.20;;;20.90;81.40;;;;;;5096122;28;20128;-82
2022/05/02 12:41:01;;;;;;;12.52;8.15;;;20.60;79.90;;;;;;5095612;28;20054;-83
2022/05/02 12:43:40;;;;;;;11.82;7.63;;;20.70;80.90;;;;;;5113637;28;20040;-82
2022/05/02 12:46:10;;;;;;;14.23;8.23;;;20.90;81.80;;;;;;5114279;28;20445;-82
2022/05/02 12:48:41;;;;;;;12.15;7.75;;;20.90;81.40;;;;;;5095503;28;20044;-83
2022/05/02 12:51:14;;;;;;;12.73;7.45;;;21.00;79.70;;;;;;5095890;28;20055;-82
2022/05/02 12:56:24;;;;;;;12.73;7.50;;;20.80;79.40;;;;;;5094911;28;19923;-82
2022/05/02 13:01:43;;;;;;;11.60;7.57;;;21.20;79.30;;;;;;5095587;28;20048;-84
2022/05/02 13:04:16;;;;;;;11.60;7.50;;;21.10;76.50;;;;;;5113343;28;20051;-84
2022/05/02 13:06:43;;;;;;;11.48;6.53;;;21.00;77.40;;;;;;5113379;28;20509;-83
2022/05/02 13:09:12;;;;;;;14.13;7.80;;;21.00;77.70;;;;;;5113750;28;20551;-84
2022/05/02 13:11:39;;;;;;;10.98;6.80;;;20.90;76.30;;;;;;5094620;28;20050;-83
2022/05/02 13:14:05;;;;;;;12.90;6.70;;;20.90;77.10;;;;;;5095233;28;20039;-89
2022/05/02 13:16:49;;;;;;;12.15;6.68;;;20.90;76.70;;;;;;5113239;28;20086;-85
2022/05/02 13:19:15;;;;;;;11.73;7.10;;;21.00;76.90;;;;;;5095477;28;20054;-85
2022/05/02 13:21:54;;;;;;;13.07;6.43;;;21.00;76.00;;;;;;5113663;28;20376;-86
2022/05/02 13:24:20;;;;;;;11.32;6.70;;;21.00;76.70;;;;;;5112797;28;20051;-84
2022/05/02 13:26:55;;;;;;;12.38;6.75;;;21.10;77.80;;;;;;5094860;28;20044;-85
2022/05/02 13:29:36;;;;;;;10.55;6.03;;;21.30;76.80;;;;;;5113236;28;20130;-85
2022/05/02 13:32:04;;;;;;;11.10;6.57;;;21.40;76.70;;;;;;5094069;28;20055;-85
2022/05/02 13:34:44;;;;;;;12.07;6.47;;;21.20;75.70;;;;;;5113541;28;20089;-85
2022/05/02 13:37:25;;;;;;;13.30;6.25;;;21.00;73.60;;;;;;5095140;28;20051;-85